Time;durP1;ratioP1;P1;durP2;ratioP2;P2;SDS_P1;SDS_P2;PMS_P1;PMS_P2;Temp;Humidity;BMP_temperature;BMP_pressure;BME280_temperature;BME280_humidity;BME280_pressure;Samples;Min_cycle;Max_cycle;Signal;HPM_P1;HPM_P2
2022/03/25 00:01:07;;;;;;;19.02;10.82;;;;;;;2.49;100.00;96006.06;5030355;28;20041;-52
2022/03/25 00:03:35;;;;;;;19.05;10.80;;;;;;;2.47;100.00;96005.44;5034706;28;20040;-52
2022/03/25 00:06:08;;;;;;;19.60;11.35;;;;;;;2.49;100.00;95998.13;5035820;28;20017;-52
2022/03/25 00:08:34;;;;;;;;;;;;;;;2.52;100.00;95997.78;5036233;28;20037;-52
2022/03/25 00:10:59;;;;;;;19.13;10.70;;;;;;;2.53;100.00;95996.75;5035421;28;19912;-54
2022/03/25 00:13:28;;;;;;;22.55;10.57;;;;;;;2.53;100.00;95995.94;5034340;28;20111;-52
2022/03/25 00:15:57;;;;;;;20.75;11.68;;;;;;;2.52;100.00;95995.13;5035450;28;20490;-54
2022/03/25 00:18:22;;;;;;;25.63;12.68;;;;;;;2.53;100.00;95990.66;5017940;28;20443;-53
2022/03/25 00:20:55;;;;;;;21.15;11.48;;;;;;;2.56;100.00;95991.06;5035460;28;20080;-56
2022/03/25 00:23:21;;;;;;;22.08;11.80;;;;;;;2.55;100.00;96001.84;5035368;28;20455;-51
2022/03/25 00:25:46;;;;;;;23.52;12.55;;;;;;;2.51;100.00;96000.63;5035724;28;20087;-52
2022/03/25 00:28:12;;;;;;;20.25;11.38;;;;;;;2.48;100.00;95999.16;5035763;28;20104;-53
2022/03/25 00:30:37;;;;;;;21.60;11.65;;;;;;;2.42;100.00;96007.03;5034477;28;20021;-53
2022/03/25 00:33:04;;;;;;;22.35;12.05;;;;;;;2.32;100.00;95991.50;5035694;28;20107;-54
2022/03/25 00:35:32;;;;;;;20.45;11.02;;;;;;;2.26;100.00;95994.91;5035399;28;20025;-54
2022/03/25 00:38:04;;;;;;;22.55;12.82;;;;;;;2.18;100.00;95993.22;5033763;28;20025;-55
2022/03/25 00:40:33;;;;;;;23.73;12.70;;;;;;;2.14;100.00;95989.31;5035263;28;20472;-52
2022/03/25 00:43:06;;;;;;;22.63;12.48;;;;;;;2.14;100.00;95980.56;5036014;28;20068;-52
2022/03/25 00:45:32;;;;;;;22.05;11.93;;;;;;;2.15;100.00;95971.63;5035140;28;20061;-53
2022/03/25 00:48:04;;;;;;;20.90;11.95;;;;;;;2.21;100.00;95970.88;5035022;28;20080;-53
2022/03/25 00:50:29;;;;;;;21.52;11.13;;;;;;;2.22;100.00;95973.31;5034702;28;20132;-54
2022/03/25 00:52:55;;;;;;;27.83;12.38;;;;;;;2.24;100.00;95975.78;5033584;28;20068;-53
2022/03/25 00:55:23;;;;;;;21.52;12.77;;;;;;;2.23;100.00;95974.16;5033679;28;20025;-52
2022/03/25 00:57:49;;;;;;;23.60;12.60;;;;;;;2.22;100.00;95973.31;5034304;28;20067;-52
2022/03/25 01:00:14;;;;;;;25.42;12.30;;;;;;;2.26;100.00;95976.41;5035024;28;20448;-55
2022/03/25 01:02:43;;;;;;;23.95;12.23;;;;;;;2.31;100.00;95980.13;5034688;28;20116;-55
2022/03/25 01:05:12;;;;;;;22.05;12.02;;;;;;;2.36;100.00;95979.53;5034592;28;20024;-52
2022/03/25 01:07:44;;;;;;;21.88;12.88;;;;;;;2.38;100.00;95985.44;5034689;28;20033;-54
2022/03/25 01:10:11;;;;;;;18.15;9.38;;;;;;;2.32;100.00;95984.38;5034495;28;20021;-57
2022/03/25 01:12:37;;;;;;;22.25;12.93;;;;;;;2.23;100.00;95988.16;5034558;28;20392;-54
2022/03/25 01:15:11;;;;;;;24.60;13.25;;;;;;;2.14;100.00;95988.50;5034549;28;20026;-53
2022/03/25 01:17:36;;;;;;;22.73;12.18;;;;;;;2.00;100.00;95977.81;5034384;28;20029;-54
2022/03/25 01:20:02;;;;;;;25.13;13.13;;;;;;;1.98;100.00;95968.44;5034363;28;20028;-54
2022/03/25 01:22:33;;;;;;;24.92;13.18;;;;;;;2.01;100.00;95968.06;5034413;28;20021;-54
2022/03/25 01:25:03;;;;;;;22.73;12.55;;;;;;;2.06;100.00;95959.56;5034410;28;20079;-54
2022/03/25 01:27:34;;;;;;;26.30;12.80;;;;;;;2.11;100.00;95960.63;5049561;28;20034;-55
2022/03/25 01:30:00;;;;;;;23.23;12.65;;;;;;;2.17;100.00;95961.69;5032827;28;20052;-58
2022/03/25 01:32:29;;;;;;;24.02;13.45;;;;;;;2.17;100.00;95965.16;5034304;28;20419;-54
2022/03/25 01:34:57;;;;;;;23.92;12.85;;;;;;;2.22;100.00;95968.03;5034266;28;20096;-52
2022/03/25 01:37:25;;;;;;;24.77;12.48;;;;;;;2.26;100.00;95969.28;5032808;28;20113;-56
2022/03/25 01:39:53;;;;;;;24.60;13.60;;;;;;;2.20;100.00;95970.06;5032674;28;20425;-52
2022/03/25 01:42:29;;;;;;;25.42;13.05;;;;;;;2.10;100.00;95966.94;5032894;28;20025;-52
2022/03/25 01:44:56;;;;;;;22.77;11.75;;;;;;;1.95;100.00;95968.81;5033996;28;20035;-52
2022/03/25 01:47:31;;;;;;;24.27;13.20;;;;;;;1.79;100.00;95964.59;5034062;28;20022;-52
2022/03/25 01:49:57;;;;;;;20.75;11.48;;;;;;;1.65;100.00;95955.75;5033728;28;20042;-54
2022/03/25 01:52:30;;;;;;;22.02;12.18;;;;;;;1.55;100.00;95959.69;5032925;28;20550;-52
2022/03/25 01:55:15;;;;;;;23.05;12.00;;;;;;;1.47;100.00;95950.06;5032456;28;20108;-52
2022/03/25 01:57:40;;;;;;;23.25;12.60;;;;;;;1.42;100.00;95945.34;5033738;28;20095;-52
2022/03/25 02:00:09;;;;;;;20.98;12.02;;;;;;;1.36;100.00;95940.00;5033536;28;20492;-54
2022/03/25 02:02:39;;;;;;;25.92;12.90;;;;;;;1.25;100.00;95937.84;5033596;28;20037;-52
2022/03/25 02:05:08;;;;;;;22.88;11.88;;;;;;;1.13;100.00;95926.94;5033717;28;20033;-53
2022/03/25 02:07:33;;;;;;;23.38;11.57;;;;;;;1.03;100.00;95921.13;5033401;28;20430;-52
2022/03/25 02:10:05;;;;;;;23.25;12.05;;;;;;;0.97;100.00;95912.13;5032559;28;20024;-52
2022/03/25 02:12:32;;;;;;;23.95;12.38;;;;;;;0.94;100.00;95907.22;5033378;28;20029;-54
2022/03/25 02:15:00;;;;;;;22.48;11.52;;;;;;;0.89;100.00;95900.88;5032219;28;20049;-52
2022/03/25 02:17:33;;;;;;;23.63;12.18;;;;;;;0.88;100.00;95892.16;5033220;28;20550;-55
2022/03/25 02:19:58;;;;;;;20.73;11.95;;;;;;;0.88;100.00;95883.44;5031891;28;20029;-57
2022/03/25 02:22:24;;;;;;;23.50;12.02;;;;;;;0.89;100.00;95883.25;5033155;28;20034;-53
2022/03/25 02:24:49;;;;;;;25.45;12.10;;;;;;;0.90;100.00;95862.97;5032064;28;20052;-55
2022/03/25 02:27:23;;;;;;;22.27;12.73;;;;;;;0.82;100.00;95863.88;5033019;28;20036;-53
2022/03/25 02:29:48;;;;;;;26.20;12.15;;;;;;;0.76;100.00;95862.81;5033073;28;20392;-55
2022/03/25 02:32:21;;;;;;;23.92;12.45;;;;;;;0.70;100.00;95857.44;5031759;28;20025;-56
2022/03/25 02:34:47;;;;;;;;;;;;;;;0.67;100.00;95858.66;5032220;28;20056;-57
2022/03/25 02:37:12;;;;;;;21.60;11.63;;;;;;;0.64;100.00;95859.00;5031645;28;19917;-54
2022/03/25 02:39:47;;;;;;;22.42;11.30;;;;;;;0.63;100.00;95854.72;5032969;28;20540;-56
2022/03/25 02:42:12;;;;;;;26.58;12.55;;;;;;;0.60;100.00;95854.28;5032926;28;20435;-55
2022/03/25 02:44:41;;;;;;;20.90;11.95;;;;;;;0.57;100.00;95848.38;5032744;28;20060;-54
2022/03/25 02:47:06;;;;;;;21.98;11.88;;;;;;;0.57;100.00;95842.28;5032613;28;20025;-56
2022/03/25 02:49:31;;;;;;;22.13;12.40;;;;;;;0.62;100.00;95847.00;5032592;28;20109;-52
2022/03/25 02:52:00;;;;;;;20.63;11.60;;;;;;;0.64;100.00;95840.53;5032647;28;20049;-54
2022/03/25 02:54:25;;;;;;;21.20;12.75;;;;;;;0.66;100.00;95835.91;5032649;28;20417;-52
2022/03/25 02:56:50;;;;;;;23.35;12.27;;;;;;;0.69;100.00;95832.09;5031364;28;20087;-52
2022/03/25 02:59:28;;;;;;;23.02;12.00;;;;;;;0.76;100.00;95828.53;5031376;28;20523;-52
2022/03/25 03:01:53;;;;;;;20.08;11.43;;;;;;;0.74;100.00;95834.97;5032519;28;20132;-52
2022/03/25 03:04:19;;;;;;;22.33;11.60;;;;;;;0.69;100.00;95832.09;5031174;28;20120;-54
2022/03/25 03:06:47;;;;;;;23.15;11.85;;;;;;;0.66;100.00;95825.38;5032778;28;20021;-52
2022/03/25 03:09:31;;;;;;;20.95;11.32;;;;;;;0.61;100.00;95825.09;5032277;28;20026;-56
2022/03/25 03:12:03;;;;;;;24.45;11.70;;;;;;;0.58;100.00;95821.00;5032434;28;20100;-57
2022/03/25 03:14:28;;;;;;;25.73;12.88;;;;;;;0.57;100.00;95819.38;5032309;28;20025;-52
2022/03/25 03:16:53;;;;;;;24.75;11.75;;;;;;;0.58;100.00;95807.03;5032286;28;20492;-52
2022/03/25 03:19:25;;;;;;;25.08;12.20;;;;;;;0.62;100.00;95812.72;5032401;28;20025;-54
2022/03/25 03:21:50;;;;;;;26.42;11.63;;;;;;;0.62;100.00;95810.09;5032140;28;20112;-54
2022/03/25 03:24:20;;;;;;;22.42;11.25;;;;;;;0.67;100.00;95810.38;5032560;28;20108;-55
2022/03/25 03:26:49;;;;;;;21.17;11.95;;;;;;;0.71;100.00;95801.88;5032065;28;20033;-56
2022/03/25 03:29:17;;;;;;;23.52;12.73;;;;;;;0.77;100.00;95800.34;5032232;28;20469;-57
2022/03/25 03:31:42;;;;;;;21.55;11.27;;;;;;;0.80;100.00;95803.41;5032047;28;20432;-56
2022/03/25 03:34:11;;;;;;;25.05;11.57;;;;;;;0.79;100.00;95799.16;5032087;28;20056;-52
2022/03/25 03:36:36;;;;;;;21.02;12.18;;;;;;;0.77;100.00;95800.34;5030952;28;20033;-54
2022/03/25 03:39:03;;;;;;;22.17;11.85;;;;;;;0.73;100.00;95804.34;5032089;28;20024;-55
2022/03/25 03:41:35;;;;;;;21.38;11.75;;;;;;;0.70;100.00;95802.91;5031909;28;20056;-52
2022/03/25 03:44:00;;;;;;;21.05;11.70;;;;;;;0.72;100.00;95792.97;5032182;28;20033;-54
2022/03/25 03:46:25;;;;;;;24.63;12.82;;;;;;;0.80;100.00;95792.88;5032299;28;20118;-55
2022/03/25 03:48:51;;;;;;;23.73;11.93;;;;;;;0.87;100.00;95787.69;5032130;28;20052;-52
2022/03/25 03:51:17;;;;;;;23.25;11.85;;;;;;;0.91;100.00;95790.75;5030563;28;20094;-53
2022/03/25 03:53:43;;;;;;;22.10;11.98;;;;;;;0.91;100.00;95788.09;5031876;28;20048;-54
2022/03/25 03:56:14;;;;;;;24.08;12.55;;;;;;;0.86;100.00;95793.94;5031837;28;20025;-52
2022/03/25 03:58:40;;;;;;;28.50;13.13;;;;;;;0.81;100.00;95785.78;5031988;28;20384;-54
2022/03/25 04:01:08;;;;;;;23.60;12.07;;;;;;;0.72;100.00;95798.25;5031849;28;20025;-51
2022/03/25 04:03:36;;;;;;;22.15;12.55;;;;;;;0.68;100.00;95794.38;5031891;28;20498;-52
2022/03/25 04:06:02;;;;;;;24.70;12.68;;;;;;;0.65;100.00;95800.00;5031898;28;20478;-52
2022/03/25 04:08:27;;;;;;;23.50;12.38;;;;;;;0.66;100.00;95796.38;5031749;28;20116;-52
2022/03/25 04:10:52;;;;;;;23.45;12.15;;;;;;;0.63;100.00;95794.09;5030487;28;20468;-53
2022/03/25 04:13:18;;;;;;;24.35;11.88;;;;;;;0.61;100.00;95798.72;5031880;28;20053;-53
2022/03/25 04:15:43;;;;;;;24.63;13.00;;;;;;;0.61;100.00;95800.56;5030433;28;20026;-53
2022/03/25 04:18:09;;;;;;;26.67;12.95;;;;;;;0.59;100.00;95798.09;5031871;28;20498;-52
2022/03/25 04:20:34;;;;;;;23.08;12.13;;;;;;;0.56;100.00;95798.47;5031700;28;20441;-56
2022/03/25 04:23:08;;;;;;;23.42;12.95;;;;;;;0.54;100.00;95797.81;5031530;28;20033;-55
2022/03/25 04:25:34;;;;;;;27.70;12.55;;;;;;;0.47;100.00;95795.13;5029150;28;20041;-56
2022/03/25 04:28:02;;;;;;;24.77;13.07;;;;;;;0.40;100.00;95798.69;5030576;28;20033;-58
2022/03/25 04:30:33;;;;;;;28.05;12.55;;;;;;;0.33;100.00;95792.53;5030487;28;20095;-56
2022/03/25 04:33:04;;;;;;;24.67;13.40;;;;;;;0.29;100.00;95786.78;5031677;28;20776;-56
2022/03/25 04:35:32;;;;;;;29.42;12.80;;;;;;;0.32;100.00;95783.78;5032600;28;20472;-56
2022/03/25 04:37:58;;;;;;;23.30;11.95;;;;;;;0.32;100.00;95778.50;5033175;28;20032;-53
2022/03/25 04:40:33;;;;;;;22.48;12.50;;;;;;;0.23;100.00;95782.28;5034314;28;20029;-52
2022/03/25 04:42:59;;;;;;;22.15;11.95;;;;;;;0.14;100.00;95783.38;5034455;28;20345;-52
2022/03/25 04:45:30;;;;;;;21.45;11.65;;;;;;;0.07;100.00;95771.91;5033893;28;20408;-52
2022/03/25 04:47:56;;;;;;;25.63;12.32;;;;;;;-0.03;100.00;95775.63;5034115;28;20500;-52
2022/03/25 04:50:25;;;;;;;25.30;13.45;;;;;;;0.01;100.00;95770.03;5032729;28;20077;-52
2022/03/25 04:53:03;;;;;;;25.80;13.25;;;;;;;0.02;100.00;95763.75;5034057;28;20606;-51
2022/03/25 04:55:29;;;;;;;23.02;11.57;;;;;;;0.00;100.00;95756.03;5033742;28;20124;-52
2022/03/25 04:58:04;;;;;;;22.33;12.20;;;;;;;0.02;100.00;95756.69;5032695;28;20116;-52
2022/03/25 05:00:29;;;;;;;22.38;12.10;;;;;;;0.02;100.00;95751.41;5033855;28;20029;-52
2022/03/25 05:02:54;;;;;;;25.52;11.93;;;;;;;0.01;100.00;95754.22;5032546;28;20065;-52
2022/03/25 05:05:23;;;;;;;24.35;11.70;;;;;;;-0.02;100.00;95755.38;5033464;28;20072;-52
2022/03/25 05:07:50;;;;;;;23.23;12.68;;;;;;;-0.06;100.00;95752.31;5032895;28;20049;-51
2022/03/25 05:10:15;;;;;;;24.33;12.82;;;;;;;-0.07;100.00;95747.22;5032489;28;20048;-52
2022/03/25 05:12:42;;;;;;;25.73;12.57;;;;;;;-0.07;100.00;95742.78;5033679;28;20029;-54
2022/03/25 05:15:07;;;;;;;24.60;12.35;;;;;;;-0.03;100.00;95740.59;5033325;28;20408;-52
2022/03/25 05:17:33;;;;;;;26.80;13.40;;;;;;;-0.03;100.00;95740.59;5033254;28;20036;-60
2022/03/25 05:20:05;;;;;;;21.20;11.88;;;;;;;-0.04;100.00;95737.13;5032525;28;20128;-53
2022/03/25 05:22:40;;;;;;;23.02;12.70;;;;;;;-0.01;100.00;95736.75;5032379;28;20112;-54
2022/03/25 05:25:07;;;;;;;23.33;11.80;;;;;;;-0.01;100.00;95733.31;5033382;28;20384;-55
2022/03/25 05:27:49;;;;;;;25.20;13.18;;;;;;;-0.06;100.00;95733.88;5033573;28;20017;-56
2022/03/25 05:30:16;;;;;;;24.80;11.68;;;;;;;-0.12;100.00;95739.03;5032232;28;20132;-53
2022/03/25 05:32:42;;;;;;;20.45;11.13;;;;;;;-0.16;100.00;95740.41;5032072;28;20025;-54
2022/03/25 05:35:10;;;;;;;22.88;11.98;;;;;;;-0.19;100.00;95744.25;5032889;28;20037;-56
2022/03/25 05:37:39;;;;;;;25.38;12.85;;;;;;;-0.19;100.00;95743.44;5031986;28;20514;-53
2022/03/25 05:40:09;;;;;;;22.58;11.98;;;;;;;-0.11;100.00;95746.78;5033081;28;20060;-55
2022/03/25 05:42:35;;;;;;;23.42;11.93;;;;;;;-0.03;100.00;95741.41;5033187;28;20112;-55
2022/03/25 05:45:01;;;;;;;23.23;11.55;;;;;;;0.03;100.00;95747.78;5032955;28;20377;-53
2022/03/25 05:47:26;;;;;;;21.85;12.10;;;;;;;0.03;100.00;95736.41;5033077;28;20020;-52
2022/03/25 05:52:29;;;;;;;24.00;13.00;;;;;;;0.02;100.00;95745.31;5009141;28;20554;-58
2022/03/25 05:54:54;;;;;;;24.70;12.13;;;;;;;0.05;100.00;95740.50;5011894;28;20026;-60
2022/03/25 05:57:20;;;;;;;25.63;12.65;;;;;;;0.12;100.00;95738.78;5014063;28;20483;-61
2022/03/25 05:59:46;;;;;;;30.27;12.60;;;;;;;0.20;100.00;95735.19;5014016;28;20492;-61
2022/03/25 06:02:11;;;;;;;24.25;11.90;;;;;;;0.27;100.00;95726.38;5012698;28;20025;-61
2022/03/25 06:04:41;;;;;;;23.27;11.35;;;;;;;0.35;100.00;95716.75;5014159;28;20029;-59
2022/03/25 06:07:07;;;;;;;23.33;12.30;;;;;;;0.48;100.00;95722.97;5012447;28;20018;-61
2022/03/25 06:09:32;;;;;;;23.70;12.60;;;;;;;0.62;100.00;95723.09;5013925;28;20022;-59
2022/03/25 06:11:58;;;;;;;24.15;12.65;;;;;;;0.69;100.00;95724.81;5014071;28;20044;-59
2022/03/25 06:14:29;;;;;;;25.05;11.95;;;;;;;0.75;100.00;95726.69;5014477;28;20034;-62
2022/03/25 06:16:55;;;;;;;25.77;12.77;;;;;;;0.81;100.00;95720.66;5013825;28;20473;-59
2022/03/25 06:19:26;;;;;;;24.95;12.70;;;;;;;0.87;100.00;95711.19;5013904;28;20113;-59
2022/03/25 06:21:58;;;;;;;22.73;11.82;;;;;;;0.92;100.00;95724.63;5014223;28;20361;-57
2022/03/25 06:24:24;;;;;;;22.60;11.90;;;;;;;0.93;100.00;95720.16;5013437;28;20064;-54
2022/03/25 06:26:50;;;;;;;23.05;11.63;;;;;;;0.99;100.00;95716.78;5005271;28;20025;-54
2022/03/25 06:29:15;;;;;;;27.05;12.15;;;;;;;1.03;100.00;95710.91;5013083;28;20462;-60
2022/03/25 06:31:46;;;;;;;26.98;12.45;;;;;;;1.23;100.00;95712.91;5013627;28;20075;-59
2022/03/25 06:34:20;;;;;;;22.45;11.65;;;;;;;1.41;100.00;95715.88;5014490;28;20041;-59
2022/03/25 06:36:47;;;;;;;24.20;12.13;;;;;;;1.67;100.00;95709.97;4995601;28;20023;-60
2022/03/25 06:39:12;;;;;;;23.60;12.25;;;;;;;1.94;100.00;95719.66;4994898;28;20165;-61
2022/03/25 06:41:44;;;;;;;25.42;11.82;;;;;;;2.27;100.00;95718.97;4993396;28;20057;-58
2022/03/25 06:44:09;;;;;;;26.70;12.23;;;;;;;2.73;100.00;95716.50;5029439;28;20093;-57
2022/03/25 06:46:35;;;;;;;23.67;11.40;;;;;;;3.16;100.00;95708.22;5005462;28;20161;-59
2022/03/25 06:49:01;;;;;;;21.23;11.88;;;;;;;3.65;100.00;95704.28;4993734;28;20109;-60
2022/03/25 06:51:26;;;;;;;28.35;11.30;;;;;;;4.08;100.00;95707.25;5000353;28;20045;-57
2022/03/25 06:53:52;;;;;;;20.70;11.55;;;;;;;4.56;100.00;95707.69;5012895;28;20041;-59
2022/03/25 06:56:18;;;;;;;21.02;11.40;;;;;;;5.10;100.00;95708.16;5011444;28;20026;-58
2022/03/25 06:58:43;;;;;;;28.30;11.73;;;;;;;5.64;100.00;95720.78;5011943;28;20029;-55
2022/03/25 07:01:09;;;;;;;26.95;11.77;;;;;;;6.18;100.00;95742.41;5012095;28;20052;-60
2022/03/25 07:03:34;;;;;;;25.30;11.55;;;;;;;6.72;100.00;95789.47;5015433;28;20025;-57
2022/03/25 07:06:01;;;;;;;27.60;12.73;;;;;;;7.22;100.00;95850.53;5004727;28;20109;-56
2022/03/25 07:08:30;;;;;;;22.15;11.43;;;;;;;7.73;100.00;95929.22;4992099;28;20130;-58
2022/03/25 07:10:56;;;;;;;23.88;11.50;;;;;;;8.00;100.00;96010.50;4993293;28;20035;-55
2022/03/25 07:13:22;;;;;;;22.00;11.55;;;;;;;8.13;100.00;96057.53;4991850;28;20034;-54
2022/03/25 07:15:47;;;;;;;20.17;10.88;;;;;;;8.23;100.00;96111.19;5005209;28;20113;-55
2022/03/25 07:18:13;;;;;;;25.52;11.73;;;;;;;8.32;100.00;96144.53;5012571;28;20088;-56
2022/03/25 07:20:47;;;;;;;21.88;10.88;;;;;;;8.64;100.00;96163.88;5012833;28;20033;-57
2022/03/25 07:23:15;;;;;;;20.58;10.20;;;;;;;9.04;100.00;96187.38;5011698;28;20365;-59
2022/03/25 07:25:41;;;;;;;18.75;9.43;;;;;;;9.40;100.00;96215.81;5011772;28;20029;-57
2022/03/25 07:28:09;;;;;;;20.33;10.30;;;;;;;9.68;100.00;96236.59;5011250;28;20026;-58
2022/03/25 07:30:37;;;;;;;19.90;10.35;;;;;;;9.75;100.00;96253.31;5011172;28;20025;-58
2022/03/25 07:33:05;;;;;;;18.98;10.00;;;;;;;9.79;100.00;96273.25;5012452;28;20099;-59
2022/03/25 07:35:33;;;;;;;22.83;10.65;;;;;;;10.03;100.00;96273.25;5012407;28;20076;-57
2022/03/25 07:38:01;;;;;;;19.67;10.23;;;;;;;10.29;100.00;96286.19;5011255;28;20044;-58
2022/03/25 07:40:27;;;;;;;19.90;9.43;;;;;;;10.55;100.00;96301.00;5012394;28;20022;-58
2022/03/25 07:42:52;;;;;;;17.80;8.93;;;;;;;10.68;100.00;96305.28;5012355;28;20068;-57
2022/03/25 07:45:26;;;;;;;17.58;9.40;;;;;;;10.75;100.00;96319.38;5012562;28;20464;-59
2022/03/25 07:47:52;;;;;;;19.42;9.30;;;;;;;11.01;100.00;96328.75;5011183;28;20056;-57
2022/03/25 07:50:23;;;;;;;14.98;8.90;;;;;;;11.17;100.00;96336.03;5011247;28;20030;-59
2022/03/25 07:52:54;;;;;;;16.75;8.95;;;;;;;11.47;100.00;96343.88;5011062;28;20026;-59
2022/03/25 07:55:20;;;;;;;14.23;8.38;;;;;;;11.65;100.00;96358.16;5012298;28;20033;-59
2022/03/25 07:57:50;;;;;;;17.13;8.93;;;;;;;11.90;99.66;96362.16;5012254;28;20033;-59
2022/03/25 08:00:21;;;;;;;15.05;9.13;;;;;;;12.14;99.05;96368.19;5000656;28;20396;-58
2022/03/25 08:02:49;;;;;;;15.27;9.13;;;;;;;12.42;97.53;96378.06;4991416;28;20034;-58
2022/03/25 08:05:15;;;;;;;17.65;9.05;;;;;;;12.58;96.00;96380.97;4991523;28;20026;-61
2022/03/25 08:07:54;;;;;;;13.75;8.63;;;;;;;12.41;93.94;96392.56;4992883;28;20018;-61
2022/03/25 08:10:28;;;;;;;14.43;9.00;;;;;;;12.57;94.12;96390.91;4995230;28;20022;-59
2022/03/25 08:13:03;;;;;;;17.30;9.90;;;;;;;12.58;93.17;96395.22;4996700;28;20042;-62
2022/03/25 08:15:30;;;;;;;13.80;8.35;;;;;;;12.93;92.77;96396.84;4994998;28;20031;-62
2022/03/25 08:17:58;;;;;;;14.65;9.07;;;;;;;13.00;90.54;96409.03;4996383;28;20037;-62
2022/03/25 08:20:39;;;;;;;17.23;9.18;;;;;;;13.27;88.91;96403.81;4996068;28;20527;-60
2022/03/25 08:23:13;;;;;;;18.25;10.48;;;;;;;13.68;88.05;96409.69;4995028;28;20038;-62
2022/03/25 08:28:29;;;;;;;14.60;9.45;;;;;;;14.08;83.53;96416.56;5016001;28;20041;-60
2022/03/25 08:30:55;;;;;;;14.57;9.43;;;;;;;14.09;83.94;96410.91;5015561;28;20033;-62
2022/03/25 08:33:23;;;;;;;18.60;10.15;;;;;;;13.96;84.29;96418.59;5015602;28;20026;-62
2022/03/25 08:35:51;;;;;;;18.45;10.55;;;;;;;14.19;84.43;96416.41;5014322;28;20022;-62
2022/03/25 08:38:17;;;;;;;17.92;10.43;;;;;;;14.48;82.99;96411.59;5015432;28;20030;-63
2022/03/25 08:40:42;;;;;;;17.23;10.13;;;;;;;14.80;82.65;96424.25;5015516;28;20530;-60
2022/03/25 08:43:11;;;;;;;16.05;10.15;;;;;;;15.07;80.70;96424.16;5015461;28;20022;-59
2022/03/25 08:45:36;;;;;;;19.40;10.50;;;;;;;15.21;79.30;96419.13;5014115;28;20040;-59
2022/03/25 08:48:02;;;;;;;15.82;9.98;;;;;;;15.42;78.77;96425.44;5015285;28;20034;-59
2022/03/25 08:50:27;;;;;;;15.75;9.65;;;;;;;15.40;78.77;96422.97;5015142;28;20042;-60
2022/03/25 08:53:02;;;;;;;16.17;10.27;;;;;;;15.37;78.86;96420.81;5009439;28;20048;-59
2022/03/25 08:55:28;;;;;;;17.75;10.02;;;;;;;15.49;78.38;96428.69;4994400;28;20117;-61
2022/03/25 08:57:54;;;;;;;18.27;10.10;;;;;;;15.79;78.37;96430.75;5009022;28;20437;-61
2022/03/25 09:00:20;;;;;;;19.08;11.40;;;;;;;16.23;77.00;96426.56;5001288;28;20030;-63
2022/03/25 09:02:46;;;;;;;19.45;11.10;;;;;;;16.54;74.39;96429.31;4995454;28;20106;-62
2022/03/25 09:05:15;;;;;;;21.67;11.18;;;;;;;16.76;72.95;96427.16;4994181;28;20029;-60
2022/03/25 09:07:44;;;;;;;18.90;10.80;;;;;;;16.99;73.37;96433.09;4995400;28;20025;-63
2022/03/25 09:10:20;;;;;;;17.05;10.98;;;;;;;16.72;71.53;96431.50;4994185;28;20034;-61
2022/03/25 09:12:52;;;;;;;18.80;11.43;;;;;;;16.46;72.15;96427.13;4995306;28;20041;-63
2022/03/25 09:15:29;;;;;;;20.08;12.55;;;;;;;16.69;70.16;96431.22;4995423;28;20474;-60
2022/03/25 09:17:55;;;;;;;21.77;13.70;;;;;;;17.02;64.34;96425.25;4995355;28;20030;-62
2022/03/25 09:20:20;;;;;;;20.90;13.75;;;;;;;17.14;60.72;96426.84;4994753;28;20031;-63
2022/03/25 09:22:50;;;;;;;25.40;15.63;;;;;;;17.11;59.82;96428.22;4995420;28;20105;-60
2022/03/25 09:25:15;;;;;;;23.83;14.35;;;;;;;17.15;60.09;96431.19;4995373;28;20023;-61
2022/03/25 09:27:50;;;;;;;24.48;15.80;;;;;;;17.17;62.25;96421.72;4995160;28;20560;-58
2022/03/25 09:30:21;;;;;;;23.75;15.50;;;;;;;17.38;60.80;96422.50;4994728;28;20026;-58
2022/03/25 09:32:47;;;;;;;25.38;15.00;;;;;;;17.75;59.38;96416.69;4995042;28;20022;-60
2022/03/25 09:35:19;;;;;;;23.95;15.13;;;;;;;17.82;58.39;96417.22;4995104;28;20093;-60
2022/03/25 09:37:50;;;;;;;25.05;14.73;;;;;;;17.67;57.31;96415.31;4994854;28;20022;-60
2022/03/25 09:40:18;;;;;;;24.20;15.02;;;;;;;17.77;58.73;96402.84;4994844;28;20041;-61
2022/03/25 09:42:50;;;;;;;23.25;15.65;;;;;;;18.03;56.91;96401.66;4994790;28;20405;-62
2022/03/25 09:45:20;;;;;;;30.50;15.60;;;;;;;18.00;55.74;96402.19;4994709;28;20057;-60
2022/03/25 09:47:50;;;;;;;25.80;15.38;;;;;;;17.74;56.05;96393.38;4994704;28;20110;-64
2022/03/25 09:50:21;;;;;;;24.25;15.75;;;;;;;18.09;57.75;96392.38;4994313;28;20030;-63
2022/03/25 09:52:47;;;;;;;22.77;14.77;;;;;;;18.12;53.10;96386.38;5007900;28;20540;-62
2022/03/25 09:55:19;;;;;;;25.35;15.25;;;;;;;18.06;52.34;96384.00;4994525;28;20038;-63
2022/03/25 09:57:45;;;;;;;23.23;15.93;;;;;;;18.09;54.08;96380.72;4993158;28;20054;-60
2022/03/25 10:00:17;;;;;;;22.75;15.27;;;;;;;18.23;55.46;96379.00;4998221;28;20069;-61
2022/03/25 10:02:46;;;;;;;25.80;15.98;;;;;;;18.40;55.21;96376.72;4994436;28;20028;-59
2022/03/25 10:05:22;;;;;;;26.95;16.15;;;;;;;18.04;54.11;96383.47;4993142;28;20121;-60
2022/03/25 10:07:54;;;;;;;26.73;17.08;;;;;;;17.89;53.63;96381.66;4999194;28;20021;-59
2022/03/25 10:10:25;;;;;;;25.02;16.30;;;;;;;18.07;55.65;96372.88;5012285;28;20022;-59
2022/03/25 10:13:02;;;;;;;22.48;14.43;;;;;;;18.64;57.13;96365.97;5012411;28;20391;-61
2022/03/25 10:15:32;;;;;;;25.63;16.00;;;;;;;19.04;54.12;96367.50;5012173;28;20021;-61
2022/03/25 10:18:03;;;;;;;21.35;14.90;;;;;;;18.80;52.18;96362.03;5013626;28;20022;-65
2022/03/25 10:20:34;;;;;;;23.80;15.70;;;;;;;18.75;54.46;96364.78;5012219;28;20142;-61
2022/03/25 10:23:10;;;;;;;23.65;15.05;;;;;;;18.87;52.29;96363.59;5013553;28;20095;-62
2022/03/25 10:25:47;;;;;;;23.58;14.98;;;;;;;18.93;52.90;96360.56;4945809;28;20049;-58
2022/03/25 10:28:27;;;;;;;22.88;14.82;;;;;;;19.35;52.14;96361.75;5012177;28;20047;-59
2022/03/25 10:31:01;;;;;;;24.50;16.08;;;;;;;19.13;54.96;96364.97;5012911;28;20072;-60
2022/03/25 10:33:43;;;;;;;24.38;15.95;;;;;;;18.96;57.13;96353.72;5012038;28;20392;-63
2022/03/25 10:36:10;;;;;;;25.42;15.77;;;;;;;19.05;54.17;96349.31;5005499;28;20029;-62
2022/03/25 10:38:51;;;;;;;24.08;15.43;;;;;;;18.51;50.73;96359.25;5006979;28;20057;-62
2022/03/25 10:41:23;;;;;;;25.65;16.50;;;;;;;18.76;53.12;96355.53;4983325;28;20038;-59
2022/03/25 10:43:55;;;;;;;24.52;16.00;;;;;;;18.94;55.77;96343.16;4993519;28;20030;-62
2022/03/25 10:46:27;;;;;;;25.05;16.50;;;;;;;18.92;54.11;96352.69;4992257;28;20508;-60
2022/03/25 10:48:55;;;;;;;25.85;16.25;;;;;;;19.12;54.68;96347.06;4992567;28;20038;-60
2022/03/25 10:51:21;;;;;;;23.80;14.82;;;;;;;19.30;53.69;96348.19;4991415;28;20129;-61
2022/03/25 10:53:59;;;;;;;21.55;15.32;;;;;;;19.67;50.42;96356.50;4991370;28;20109;-61
2022/03/25 10:56:26;;;;;;;24.08;14.80;;;;;;;19.74;48.53;96347.97;4978322;28;20034;-62
2022/03/25 10:58:57;;;;;;;22.05;15.85;;;;;;;19.86;48.52;96344.81;4991317;28;20092;-61
2022/03/25 11:01:35;;;;;;;21.27;14.68;;;;;;;19.80;47.11;96344.09;4991204;28;20141;-63
2022/03/25 11:04:01;;;;;;;24.45;15.43;;;;;;;19.63;48.22;96344.56;4991383;28;20053;-59
2022/03/25 11:06:39;;;;;;;24.88;15.65;;;;;;;19.68;48.64;96341.78;4992172;28;20026;-63
2022/03/25 11:09:08;;;;;;;23.67;15.55;;;;;;;19.90;48.25;96337.69;4992097;28;20112;-63
2022/03/25 11:11:34;;;;;;;22.63;16.25;;;;;;;19.74;49.28;96336.28;4991257;28;20084;-63
2022/03/25 11:14:04;;;;;;;23.23;16.08;;;;;;;19.94;50.63;96328.66;4991444;28;20058;-63
2022/03/25 11:17:09;;;;;;;22.80;15.48;;;;;;;19.74;51.12;96328.13;4992159;28;20026;-63
2022/03/25 11:19:37;;;;;;;23.33;15.77;;;;;;;19.49;50.54;96331.97;4970669;28;20034;-64
2022/03/25 11:22:04;;;;;;;25.92;16.63;;;;;;;19.24;52.79;96324.94;4970656;28;20125;-63
2022/03/25 11:24:39;;;;;;;29.58;16.45;;;;;;;19.10;51.96;96324.78;4970873;28;20393;-63
2022/03/25 11:27:34;;;;;;;24.55;17.42;;;;;;;19.35;53.14;96318.28;4970140;28;20591;-64
2022/03/25 11:30:09;;;;;;;26.05;16.25;;;;;;;19.49;52.50;96310.22;4970506;28;20057;-62